Time;durP1;ratioP1;P1;durP2;ratioP2;P2;SDS_P1;SDS_P2;PMS_P1;PMS_P2;Temp;Humidity;BMP_temperature;BMP_pressure;BME280_temperature;BME280_humidity;BME280_pressure;Samples;Min_cycle;Max_cycle;Signal;HPM_P1;HPM_P2
2022/02/03 00:01:16;;;;;;;60.13;37.20;;;8.90;99.90;;;;;;5013088;28;20034;-80
2022/02/03 00:03:52;;;;;;;64.93;38.50;;;8.90;99.90;;;;;;5012991;28;20022;-79
2022/02/03 00:06:29;;;;;;;62.28;36.13;;;8.90;99.90;;;;;;5015046;28;20420;-80
2022/02/03 00:16:15;;;;;;;62.95;38.13;;;9.00;99.90;;;;;;5012155;28;20211;-79
2022/02/03 00:16:25;;;;;;;67.38;38.35;;;9.00;99.90;;;;;;5002102;28;20553;-79
2022/02/03 00:25:26;;;;;;;60.72;38.00;;;9.00;99.90;;;;;;5008683;28;20022;-80
2022/02/03 00:30:57;;;;;;;64.10;39.20;;;9.00;99.90;;;;;;5001735;28;20030;-79
2022/02/03 00:33:36;;;;;;;70.63;41.13;;;9.00;99.90;;;;;;5008593;28;20466;-80
2022/02/03 00:36:24;;;;;;;78.00;42.08;;;9.00;99.90;;;;;;4993295;28;20018;-79
2022/02/03 00:50:09;;;;;;;77.68;44.85;;;9.00;99.90;;;;;;5011363;28;20421;-79
2022/02/03 00:52:36;;;;;;;73.88;44.80;;;9.00;99.90;;;;;;5013254;28;20112;-79
2022/02/03 00:55:04;;;;;;;75.38;43.97;;;9.00;99.90;;;;;;5008541;28;20170;-79
2022/02/03 00:57:31;;;;;;;75.68;45.80;;;9.00;99.90;;;;;;5012742;28;20406;-80
2022/02/03 01:00:09;;;;;;;76.15;45.88;;;9.00;99.90;;;;;;5011455;28;20080;-80
2022/02/03 01:02:43;;;;;;;79.22;46.40;;;9.00;99.90;;;;;;5012273;28;20053;-79
2022/02/03 01:05:09;;;;;;;80.82;44.60;;;9.00;99.90;;;;;;5010782;28;20030;-80
2022/02/03 01:07:37;;;;;;;93.60;50.10;;;9.00;99.90;;;;;;5008971;28;20033;-79
2022/02/03 01:10:17;;;;;;;85.80;49.67;;;9.00;99.90;;;;;;5011733;28;20033;-79
2022/02/03 01:12:59;;;;;;;85.03;47.15;;;9.00;99.90;;;;;;5010543;28;20540;-80
2022/02/03 01:15:35;;;;;;;88.55;50.75;;;9.10;99.90;;;;;;5005122;28;20034;-80
2022/02/03 01:21:40;;;;;;;83.40;48.60;;;9.00;99.90;;;;;;5012050;28;20072;-79
2022/02/03 01:45:23;;;;;;;84.70;49.75;;;9.10;99.90;;;;;;5013706;28;20054;-79
2022/02/03 01:48:21;;;;;;;85.45;49.20;;;9.10;99.90;;;;;;5011710;28;20057;-79
2022/02/03 01:53:34;;;;;;;85.82;48.83;;;9.00;99.90;;;;;;5012934;28;20036;-79
2022/02/03 01:56:10;;;;;;;90.38;51.63;;;9.00;99.90;;;;;;5004005;28;20029;-80
2022/02/03 01:58:45;;;;;;;89.82;50.85;;;9.10;99.90;;;;;;5012324;28;20029;-79
2022/02/03 02:01:14;;;;;;;92.82;53.53;;;9.10;99.90;;;;;;5010063;28;20038;-80
2022/02/03 02:03:45;;;;;;;89.95;51.65;;;9.10;99.90;;;;;;4992776;28;20130;-79
2022/02/03 02:06:35;;;;;;;85.78;50.88;;;9.10;99.90;;;;;;5002553;28;20039;-79
2022/02/03 02:09:04;;;;;;;95.95;53.05;;;9.10;99.90;;;;;;5010692;28;20033;-80
2022/02/03 02:12:16;;;;;;;85.72;51.13;;;9.00;99.90;;;;;;5008277;28;20052;-79
2022/02/03 02:40:49;;;;;;;69.53;42.30;;;9.00;99.90;;;;;;5002889;28;20042;-79
2022/02/03 02:43:30;;;;;;;73.30;42.88;;;9.00;99.90;;;;;;5010434;28;20033;-79
2022/02/03 02:46:05;;;;;;;75.25;42.38;;;9.00;99.90;;;;;;5005767;28;20033;-79
2022/02/03 02:48:52;;;;;;;73.43;42.53;;;9.00;99.90;;;;;;5012951;28;20026;-79
2022/02/03 02:51:31;;;;;;;72.35;42.50;;;9.00;99.90;;;;;;5005520;28;20026;-78
2022/02/03 02:54:19;;;;;;;73.63;43.10;;;9.00;99.90;;;;;;5008420;28;20022;-79
2022/02/03 03:33:21;;;;;;;47.45;29.05;;;8.80;99.90;;;;;;5014527;28;20029;-79
2022/02/03 03:35:51;;;;;;;48.45;29.27;;;8.80;99.90;;;;;;5009513;28;20546;-80
2022/02/03 03:38:39;;;;;;;51.80;29.10;;;8.80;99.90;;;;;;4998471;28;20026;-80
2022/02/03 03:41:05;;;;;;;59.08;31.95;;;8.80;99.90;;;;;;5013089;28;20081;-80
2022/02/03 03:43:38;;;;;;;50.85;29.13;;;8.80;99.90;;;;;;5014426;28;20034;-79
2022/02/03 03:46:21;;;;;;;48.00;30.42;;;8.80;99.90;;;;;;5012853;28;20018;-80
2022/02/03 03:49:01;;;;;;;;;;;8.80;99.90;;;;;;5015260;28;20526;-80
2022/02/03 03:51:39;;;;;;;51.35;31.67;;;8.80;99.90;;;;;;5010014;28;20361;-80
2022/02/03 03:54:09;;;;;;;54.70;33.40;;;8.80;99.90;;;;;;5012621;28;20040;-79
2022/02/03 03:57:08;;;;;;;52.88;32.15;;;8.80;99.90;;;;;;4996539;28;20470;-80
2022/02/03 04:42:50;;;;;;;32.83;19.63;;;8.60;99.90;;;;;;5010861;28;20511;-80
2022/02/03 04:53:20;;;;;;;31.43;20.03;;;8.50;99.90;;;;;;5000874;28;20041;-80
2022/02/03 04:59:34;;;;;;;38.92;21.02;;;8.50;99.90;;;;;;4998533;28;20034;-80
2022/02/03 05:02:37;;;;;;;30.70;18.55;;;8.40;99.90;;;;;;5007641;28;20037;-80
2022/02/03 05:05:29;;;;;;;35.67;18.52;;;8.40;99.90;;;;;;4932097;29;20424;-79
2022/02/03 05:18:27;;;;;;;34.67;19.17;;;8.40;99.90;;;;;;5010087;28;20046;-79
2022/02/03 05:20:50;;;;;;;27.80;18.02;;;8.40;99.90;;;;;;4998546;28;20045;-79
2022/02/03 05:51:18;;;;;;;23.85;14.55;;;8.40;99.90;;;;;;4999744;28;20049;-80
2022/02/03 06:02:30;;;;;;;16.13;9.50;;;8.30;99.90;;;;;;5010347;28;20053;-79
2022/02/03 06:14:56;;;;;;;13.00;5.00;;;8.20;99.90;;;;;;4998099;28;20033;-79
2022/02/03 06:22:48;;;;;;;7.88;3.92;;;8.30;99.90;;;;;;5004464;28;20040;-80
2022/02/03 06:27:46;;;;;;;6.10;2.95;;;8.20;99.90;;;;;;5002270;28;20466;-79
2022/02/03 06:30:17;;;;;;;6.95;2.85;;;8.20;99.90;;;;;;5001296;28;20392;-79
2022/02/03 06:32:43;;;;;;;7.75;2.63;;;8.20;99.90;;;;;;4999964;28;20497;-80
2022/02/03 06:35:12;;;;;;;10.25;2.90;;;8.20;99.90;;;;;;5005023;28;20147;-80
2022/02/03 06:37:38;;;;;;;10.85;3.10;;;8.20;99.90;;;;;;5001535;28;20040;-80
2022/02/03 06:40:06;;;;;;;6.68;1.80;;;8.20;99.90;;;;;;4993046;28;20544;-78
2022/02/03 06:42:31;;;;;;;10.25;2.30;;;8.20;99.90;;;;;;5007839;28;20037;-80
2022/02/03 06:45:07;;;;;;;5.05;2.05;;;8.20;99.90;;;;;;5029085;28;20056;-80
2022/02/03 06:47:38;;;;;;;7.95;2.08;;;8.20;99.90;;;;;;5020701;28;20030;-80
2022/02/03 06:50:17;;;;;;;5.93;2.28;;;8.20;99.90;;;;;;5011153;28;20029;-80
2022/02/03 06:55:37;;;;;;;8.88;3.03;;;8.20;99.90;;;;;;5011918;28;20029;-80
2022/02/03 06:58:13;;;;;;;6.97;2.60;;;8.20;99.90;;;;;;5013505;28;20034;-80
2022/02/03 07:00:44;;;;;;;9.82;2.90;;;8.20;99.90;;;;;;4979363;28;20061;-81
2022/02/03 07:03:18;;;;;;;9.13;3.85;;;8.20;99.90;;;;;;5019513;28;20034;-80
2022/02/03 07:05:43;;;;;;;9.77;3.30;;;8.20;99.90;;;;;;5020859;28;20142;-80
2022/02/03 07:08:15;;;;;;;7.35;3.42;;;8.20;99.90;;;;;;5005443;28;20545;-80
2022/02/03 07:10:41;;;;;;;7.40;4.38;;;8.20;99.90;;;;;;5012311;28;20029;-80
2022/02/03 07:13:07;;;;;;;9.93;3.92;;;8.20;99.90;;;;;;5014857;28;20110;-80
2022/02/03 07:15:33;;;;;;;10.23;4.80;;;8.20;99.90;;;;;;5026004;28;20022;-80
2022/02/03 07:17:59;;;;;;;10.50;4.72;;;8.20;99.90;;;;;;5023679;28;20042;-80
2022/02/03 07:20:26;;;;;;;10.23;5.35;;;8.20;99.90;;;;;;5020108;28;20056;-80
2022/02/03 07:22:52;;;;;;;12.38;6.07;;;8.10;99.90;;;;;;5028449;28;20038;-80
2022/02/03 07:25:17;;;;;;;13.32;6.28;;;8.10;99.90;;;;;;5015347;28;20025;-80
2022/02/03 07:27:44;;;;;;;11.38;6.07;;;8.10;99.90;;;;;;5014966;28;20113;-80
2022/02/03 07:30:11;;;;;;;16.50;7.45;;;8.10;99.90;;;;;;5013523;28;20034;-80
2022/02/03 07:32:36;;;;;;;13.40;6.15;;;8.10;99.90;;;;;;5003372;28;20076;-80
2022/02/03 07:35:02;;;;;;;13.50;6.75;;;8.10;99.90;;;;;;5007092;28;20418;-80
2022/02/03 07:37:28;;;;;;;13.27;7.10;;;8.20;99.90;;;;;;5018254;28;20457;-80
2022/02/03 07:39:54;;;;;;;14.77;7.40;;;8.10;99.90;;;;;;5017316;28;20079;-80
2022/02/03 07:42:20;;;;;;;17.00;8.18;;;8.10;99.90;;;;;;5031390;28;20112;-80
2022/02/03 07:44:45;;;;;;;10.48;7.30;;;8.10;99.90;;;;;;5022772;28;20064;-80
2022/02/03 07:47:11;;;;;;;17.30;7.82;;;8.10;99.90;;;;;;5017310;28;20418;-80
2022/02/03 07:49:36;;;;;;;13.68;7.95;;;8.20;99.90;;;;;;5019093;28;20021;-80
2022/02/03 07:52:03;;;;;;;15.80;7.97;;;8.10;99.90;;;;;;5026713;28;20033;-80
2022/02/03 07:54:31;;;;;;;14.38;7.45;;;8.10;99.90;;;;;;5033445;28;20032;-80
2022/02/03 07:56:57;;;;;;;13.18;7.60;;;8.20;99.90;;;;;;5018490;28;20029;-80
2022/02/03 07:59:23;;;;;;;15.98;7.93;;;8.10;99.90;;;;;;5030806;28;20377;-80
2022/02/03 08:01:48;;;;;;;16.23;7.82;;;8.20;99.90;;;;;;5014350;28;20034;-79
2022/02/03 08:04:14;;;;;;;16.23;8.30;;;8.20;99.90;;;;;;5025128;28;20100;-80
2022/02/03 08:06:44;;;;;;;13.45;7.93;;;8.20;99.90;;;;;;5014115;28;20061;-79
2022/02/03 08:09:19;;;;;;;15.95;8.20;;;8.20;99.90;;;;;;5023623;28;20029;-81
2022/02/03 08:11:47;;;;;;;14.60;7.63;;;8.20;99.90;;;;;;5017329;28;20120;-80
2022/02/03 08:14:24;;;;;;;15.63;8.00;;;8.20;99.90;;;;;;5020700;28;20030;-80
2022/02/03 08:20:04;;;;;;;14.52;8.05;;;8.30;99.90;;;;;;5027770;28;20080;-81
2022/02/03 08:22:14;;;;;;;14.70;8.02;;;8.20;99.90;;;;;;4999342;28;20088;-80
2022/02/03 08:24:52;;;;;;;16.55;8.23;;;8.20;99.90;;;;;;5009423;28;20109;-80
2022/02/03 08:32:32;;;;;;;14.82;8.30;;;8.30;99.90;;;;;;5004331;28;20029;-80
2022/02/03 08:35:10;;;;;;;15.60;8.13;;;8.30;99.90;;;;;;5015580;28;20034;-80
2022/02/03 08:37:44;;;;;;;17.27;9.48;;;8.30;99.90;;;;;;5016810;28;20033;-78
2022/02/03 08:40:20;;;;;;;12.77;8.00;;;8.30;99.90;;;;;;5009777;28;20034;-80
2022/02/03 08:42:46;;;;;;;15.52;8.60;;;8.30;99.90;;;;;;4998742;28;20285;-81
2022/02/03 08:45:11;;;;;;;16.75;9.23;;;8.30;99.90;;;;;;5022970;28;20509;-80
2022/02/03 08:47:37;;;;;;;17.60;9.50;;;8.20;99.90;;;;;;5008987;28;20112;-80
2022/02/03 08:50:03;;;;;;;15.93;8.52;;;8.20;99.90;;;;;;4991332;28;20026;-79
2022/02/03 08:52:40;;;;;;;15.18;9.10;;;8.20;99.90;;;;;;5010822;28;20072;-80
2022/02/03 08:55:32;;;;;;;16.92;8.40;;;8.20;99.90;;;;;;4990782;28;20445;-80
2022/02/03 09:54:58;;;;;;;8.95;6.20;;;8.50;99.90;;;;;;5051472;28;20057;-78
2022/02/03 09:57:50;;;;;;;;;;;;;;;;;;;;;
2022/02/03 10:00:30;;;;;;;14.73;6.72;;;8.60;99.90;;;;;;5034334;28;20091;-94
2022/02/03 10:03:08;;;;;;;13.38;6.65;;;8.50;99.90;;;;;;5031023;28;20021;-94
2022/02/03 10:07:59;;;;;;;12.90;7.10;;;8.40;99.90;;;;;;5031408;28;20021;-95
2022/02/03 10:10:28;;;;;;;10.65;6.15;;;8.40;99.90;;;;;;5004973;28;20512;-94
2022/02/03 10:12:54;;;;;;;9.85;6.20;;;8.50;99.90;;;;;;5031814;28;20417;-93
2022/02/03 10:15:21;;;;;;;14.80;6.45;;;8.50;99.90;;;;;;5028189;28;20025;-93
2022/02/03 10:17:48;;;;;;;12.60;6.28;;;8.60;99.90;;;;;;5051514;28;20032;-92
2022/02/03 10:20:17;;;;;;;13.93;5.95;;;8.60;99.90;;;;;;5035300;28;20596;-94
2022/02/03 10:22:53;;;;;;;12.13;6.57;;;8.60;99.90;;;;;;5030507;28;20030;-94
2022/02/03 10:25:31;;;;;;;11.68;7.10;;;8.60;99.90;;;;;;5032488;28;20075;-92
2022/02/03 10:28:04;;;;;;;18.48;6.13;;;8.70;99.90;;;;;;5028934;28;20117;-93
2022/02/03 10:30:36;;;;;;;13.43;5.85;;;8.60;99.90;;;;;;5014533;28;20026;-93
2022/02/03 10:33:02;;;;;;;11.75;5.40;;;8.50;99.90;;;;;;5021053;28;20071;-93
2022/02/03 10:35:45;;;;;;;13.10;5.10;;;8.50;99.90;;;;;;5019793;28;20377;-93
2022/02/03 10:47:38;;;;;;;14.07;5.72;;;8.40;99.90;;;;;;5025950;28;20120;-93
2022/02/03 10:52:35;;;;;;;12.15;5.80;;;8.50;99.90;;;;;;5027181;28;20026;-95
2022/02/03 11:05:47;;;;;;;20.23;7.40;;;8.60;99.90;;;;;;5031970;28;20104;-93
2022/02/03 11:10:40;;;;;;;13.60;5.95;;;8.70;99.90;;;;;;5041000;28;20028;-94
2022/02/03 11:13:08;;;;;;;18.10;7.85;;;8.70;99.90;;;;;;5003535;28;20029;-94
2022/02/03 11:15:34;;;;;;;17.42;8.02;;;8.80;99.90;;;;;;5014954;28;20032;-91
2022/02/03 11:18:05;;;;;;;19.05;7.78;;;8.80;99.90;;;;;;5033061;28;20093;-91
2022/02/03 11:20:32;;;;;;;14.85;6.93;;;8.80;99.90;;;;;;5031565;28;20474;-92
2022/02/03 11:31:13;;;;;;;18.63;9.18;;;9.10;99.90;;;;;;5033327;28;20072;-92
2022/02/03 11:42:13;;;;;;;12.95;7.30;;;9.10;99.90;;;;;;5032646;28;20047;-92
2022/02/03 11:45:26;;;;;;;12.63;6.93;;;9.10;99.90;;;;;;5031607;28;20025;-94
2022/02/03 11:53:55;;;;;;;14.57;6.55;;;9.00;99.90;;;;;;5030958;28;20543;-94
2022/02/03 11:57:06;;;;;;;11.02;6.45;;;9.10;99.90;;;;;;5009137;28;20563;-92
2022/02/03 12:08:17;;;;;;;12.23;5.95;;;9.50;99.90;;;;;;5030067;28;20021;-92
2022/02/03 12:10:52;;;;;;;12.85;6.03;;;9.60;99.90;;;;;;5045111;28;20022;-92
2022/02/03 12:21:40;;;;;;;13.55;6.35;;;9.30;99.90;;;;;;5036021;28;20180;-91
2022/02/03 12:30:27;;;;;;;13.13;5.57;;;8.90;99.90;;;;;;4997783;28;20048;-93
2022/02/03 12:38:42;;;;;;;12.82;4.65;;;8.70;99.90;;;;;;5035129;28;20144;-94
2022/02/03 12:41:16;;;;;;;11.57;4.70;;;8.70;99.90;;;;;;5031724;28;20037;-93
2022/02/03 12:43:57;;;;;;;8.05;5.35;;;8.80;99.90;;;;;;5017655;28;20061;-94
2022/02/03 12:46:23;;;;;;;12.48;5.80;;;8.70;99.90;;;;;;5030594;28;20033;-94
2022/02/03 12:48:57;;;;;;;12.48;5.95;;;8.60;99.90;;;;;;5017405;28;20064;-94
2022/02/03 12:51:24;;;;;;;9.82;6.10;;;8.50;99.90;;;;;;5016418;28;20034;-94
2022/02/03 12:53:50;;;;;;;8.85;5.70;;;8.50;99.90;;;;;;5013705;28;20022;-93
2022/02/03 12:56:20;;;;;;;12.00;5.95;;;8.40;99.90;;;;;;5029451;28;20056;-93
2022/02/03 12:58:52;;;;;;;9.75;5.35;;;8.40;99.90;;;;;;5017203;28;20125;-94
2022/02/03 13:01:27;;;;;;;;;;;8.40;99.90;;;;;;5015885;28;20037;-94
2022/02/03 13:03:53;;;;;;;10.82;5.20;;;8.40;99.90;;;;;;5024232;28;19959;-91
2022/02/03 13:06:23;;;;;;;11.00;4.60;;;8.50;99.90;;;;;;5016280;28;20026;-93
2022/02/03 13:08:55;;;;;;;9.85;5.10;;;8.50;99.90;;;;;;5010630;28;20026;-93
2022/02/03 13:11:31;;;;;;;11.65;5.43;;;8.60;99.90;;;;;;5013364;28;20025;-93
2022/02/03 13:17:26;;;;;;;11.07;5.43;;;8.60;99.90;;;;;;5028708;28;20113;-94
2022/02/03 13:19:51;;;;;;;9.50;5.50;;;8.60;99.90;;;;;;5030641;28;20041;-93
2022/02/03 13:22:36;;;;;;;10.35;5.07;;;8.60;99.90;;;;;;5017204;28;20040;-93
2022/02/03 13:25:21;;;;;;;9.35;5.00;;;8.60;99.90;;;;;;5032096;28;20107;-93
2022/02/03 13:30:28;;;;;;;12.13;5.50;;;8.70;99.90;;;;;;5026163;28;20128;-93
2022/02/03 13:32:58;;;;;;;15.15;6.20;;;8.70;99.90;;;;;;5039758;28;20532;-94
2022/02/03 13:35:43;;;;;;;10.68;5.10;;;8.60;99.90;;;;;;5037576;28;20022;-93
2022/02/03 13:38:20;;;;;;;12.23;6.30;;;8.60;99.90;;;;;;5016056;28;20091;-92
2022/02/03 13:40:46;;;;;;;12.85;6.10;;;8.50;99.90;;;;;;5009970;28;20033;-93
2022/02/03 13:43:13;;;;;;;11.43;6.30;;;8.50;99.90;;;;;;5017454;28;20028;-92
2022/02/03 13:45:43;;;;;;;10.60;5.57;;;8.40;99.90;;;;;;5006781;28;20022;-93
2022/02/03 13:48:16;;;;;;;11.77;6.25;;;8.40;99.90;;;;;;5016862;28;20030;-93
2022/02/03 13:50:51;;;;;;;13.32;5.82;;;8.30;99.90;;;;;;5014691;28;20036;-93
2022/02/03 13:53:22;;;;;;;11.57;5.30;;;8.30;99.90;;;;;;5016580;28;20029;-93
2022/02/03 14:13:32;;;;;;;14.90;9.13;;;8.20;99.90;;;;;;5032037;28;20034;-92
2022/02/03 14:21:07;;;;;;;13.88;7.22;;;8.20;99.90;;;;;;5029654;28;20043;-92
2022/02/03 14:26:53;;;;;;;15.25;8.05;;;8.20;99.90;;;;;;5014908;28;20029;-93
2022/02/03 14:27:11;;;;;;;13.98;6.75;;;8.20;99.90;;;;;;5030941;28;20037;-92
2022/02/03 14:29:44;;;;;;;13.15;6.90;;;8.20;99.90;;;;;;5018477;28;20116;-94
2022/02/03 14:32:14;;;;;;;19.95;8.13;;;8.10;99.90;;;;;;5038445;28;20446;-93
2022/02/03 14:34:40;;;;;;;15.65;7.90;;;8.10;99.90;;;;;;5016008;28;20021;-92
2022/02/03 14:42:36;;;;;;;15.90;8.38;;;7.90;99.90;;;;;;5033613;28;20034;-93
2022/02/03 14:45:04;;;;;;;15.43;8.20;;;7.90;99.90;;;;;;5013482;28;20496;-92
2022/02/03 14:47:30;;;;;;;14.27;8.57;;;7.90;99.90;;;;;;5014610;28;20048;-92
2022/02/03 14:50:00;;;;;;;16.70;8.00;;;7.80;99.90;;;;;;5013726;28;20029;-93
2022/02/03 15:00:24;;;;;;;13.45;7.40;;;7.90;99.90;;;;;;5032750;28;20057;-92
2022/02/03 15:02:50;;;;;;;17.00;8.05;;;7.90;99.90;;;;;;5014912;28;20026;-91
2022/02/03 15:05:25;;;;;;;15.57;8.38;;;7.80;99.90;;;;;;5015175;28;20025;-93
2022/02/03 15:07:57;;;;;;;14.63;8.13;;;7.90;99.90;;;;;;5032719;28;20506;-92
2022/02/03 15:10:44;;;;;;;;;;;7.80;99.90;;;;;;5022581;28;20025;-92
2022/02/03 15:13:29;;;;;;;13.77;7.22;;;7.80;99.90;;;;;;5008803;28;19917;-93
2022/02/03 15:15:54;;;;;;;14.30;7.72;;;7.80;99.90;;;;;;4996132;28;20040;-92
2022/02/03 15:18:20;;;;;;;13.18;7.10;;;7.80;99.90;;;;;;5014661;28;20113;-93
2022/02/03 15:20:46;;;;;;;20.92;8.85;;;7.80;99.90;;;;;;5019540;28;20038;-92
2022/02/03 15:23:11;;;;;;;15.82;8.20;;;7.80;99.90;;;;;;5032713;28;20551;-92
2022/02/03 15:25:37;;;;;;;15.82;7.70;;;7.80;99.90;;;;;;5011884;28;20540;-92
2022/02/03 15:28:03;;;;;;;15.95;8.38;;;7.80;99.90;;;;;;5031452;28;20032;-91
2022/02/03 15:30:29;;;;;;;11.75;8.07;;;7.80;99.90;;;;;;5018830;28;20028;-93
2022/02/03 15:32:55;;;;;;;18.25;8.65;;;7.80;99.90;;;;;;5019460;28;20421;-93
2022/02/03 15:35:29;;;;;;;12.02;8.13;;;7.70;99.90;;;;;;5008620;28;20034;-91
2022/02/03 15:37:55;;;;;;;13.52;9.02;;;7.70;99.90;;;;;;5017757;28;20018;-93
2022/02/03 15:40:25;;;;;;;14.45;8.65;;;7.70;99.90;;;;;;5013272;28;20041;-94
2022/02/03 15:43:04;;;;;;;14.02;9.02;;;7.70;99.90;;;;;;5012759;28;20113;-94
2022/02/03 15:45:45;;;;;;;16.85;8.05;;;7.70;99.90;;;;;;5017955;28;20065;-91
2022/02/03 15:48:18;;;;;;;14.05;8.60;;;7.70;99.90;;;;;;5022141;28;20052;-91
2022/02/03 15:56:50;;;;;;;17.38;9.80;;;7.70;99.90;;;;;;5025247;28;20108;-94
2022/02/03 16:18:24;;;;;;;22.95;13.77;;;7.60;99.90;;;;;;5017391;28;20057;-93
2022/02/03 16:21:00;;;;;;;16.88;13.00;;;7.60;99.90;;;;;;5016588;28;20068;-94
2022/02/03 16:53:04;;;;;;;25.33;17.35;;;7.70;99.90;;;;;;5023021;28;20053;-93
2022/02/03 16:55:34;;;;;;;26.90;18.23;;;7.70;99.90;;;;;;5031135;28;20098;-92
2022/02/03 16:58:03;;;;;;;25.63;18.67;;;7.70;99.90;;;;;;5017041;28;20393;-93
2022/02/03 17:00:28;;;;;;;26.50;17.95;;;7.70;99.90;;;;;;5033651;28;20045;-92
2022/02/03 17:02:54;;;;;;;28.77;19.05;;;7.70;99.90;;;;;;5033858;28;20026;-93
2022/02/03 17:05:20;;;;;;;29.88;19.55;;;7.70;99.90;;;;;;5034986;28;20075;-93
2022/02/03 17:07:46;;;;;;;27.30;19.05;;;7.70;99.90;;;;;;5017962;28;20021;-94
2022/02/03 17:10:12;;;;;;;30.10;18.88;;;7.70;99.90;;;;;;5016664;28;20529;-93
2022/02/03 17:12:37;;;;;;;26.42;19.45;;;7.70;99.90;;;;;;5015706;28;20022;-92
2022/02/03 17:15:03;;;;;;;25.95;18.45;;;7.70;99.90;;;;;;5017368;28;20116;-93
2022/02/03 17:17:30;;;;;;;28.80;19.20;;;7.70;99.90;;;;;;5014640;28;20025;-93
2022/02/03 17:19:56;;;;;;;25.10;18.55;;;7.70;99.90;;;;;;5010157;28;20057;-92
2022/02/03 17:22:29;;;;;;;29.52;19.35;;;7.70;99.90;;;;;;5014602;28;20494;-93
2022/02/03 17:28:19;;;;;;;32.33;19.80;;;7.70;99.90;;;;;;5033007;28;20025;-93
2022/02/03 17:30:28;;;;;;;30.77;19.52;;;7.70;99.90;;;;;;5020250;28;20055;-93
2022/02/03 18:03:26;;;;;;;31.17;22.20;;;7.70;99.90;;;;;;5023397;28;20477;-94
2022/02/03 18:06:33;;;;;;;33.65;21.35;;;7.70;99.90;;;;;;5029532;28;20021;-93
2022/02/03 18:08:58;;;;;;;35.30;22.05;;;7.70;99.90;;;;;;5026310;28;20091;-94
2022/02/03 18:11:35;;;;;;;33.72;21.38;;;7.70;99.90;;;;;;5014398;28;20036;-92
2022/02/03 18:19:50;;;;;;;35.88;22.85;;;7.60;99.90;;;;;;5023785;28;20032;-92
2022/02/03 18:52:17;;;;;;;38.45;24.45;;;7.50;99.90;;;;;;5026906;28;20067;-90
2022/02/03 18:55:04;;;;;;;39.47;24.88;;;7.40;99.90;;;;;;5014662;28;20493;-91
2022/02/03 18:57:57;;;;;;;35.78;23.95;;;7.40;99.90;;;;;;5031482;28;20060;-92
2022/02/03 19:09:25;;;;;;;35.42;23.20;;;7.40;99.90;;;;;;4981086;28;20051;-91
2022/02/03 19:14:31;;;;;;;42.55;26.75;;;7.40;99.90;;;;;;5036564;28;20025;-91
2022/02/03 20:10:51;;;;;;;51.72;32.58;;;7.40;99.90;;;;;;5027493;28;20029;-92
2022/02/03 20:13:16;;;;;;;49.40;31.25;;;7.40;99.90;;;;;;5012012;28;20496;-92
2022/02/03 20:15:43;;;;;;;54.25;32.00;;;7.40;99.90;;;;;;5017386;28;20029;-93
2022/02/03 20:18:11;;;;;;;51.28;29.60;;;7.40;99.90;;;;;;5019913;28;20565;-91
2022/02/03 20:20:41;;;;;;;52.90;31.70;;;7.40;99.90;;;;;;5016638;28;20041;-93
2022/02/03 20:23:08;;;;;;;54.17;32.63;;;7.40;99.90;;;;;;5033094;28;20029;-91
2022/02/03 20:25:35;;;;;;;51.13;32.08;;;7.40;99.90;;;;;;5013853;28;20030;-91
2022/02/03 20:28:02;;;;;;;50.72;31.88;;;7.40;99.90;;;;;;5024222;28;20028;-93
2022/02/03 20:30:28;;;;;;;53.95;32.55;;;7.40;99.90;;;;;;5018485;28;20558;-92
2022/02/03 20:32:53;;;;;;;50.75;31.45;;;7.40;99.90;;;;;;5015539;28;20120;-94
2022/02/03 20:35:19;;;;;;;53.28;33.45;;;7.40;99.90;;;;;;5009591;28;21501;-93
2022/02/03 20:37:45;;;;;;;56.53;34.50;;;7.40;99.90;;;;;;5008438;28;20112;-92
2022/02/03 20:40:11;;;;;;;55.67;32.95;;;7.40;99.90;;;;;;5004861;28;20026;-92
2022/02/03 20:42:37;;;;;;;56.35;34.70;;;7.50;99.90;;;;;;5003866;28;20469;-92
2022/02/03 20:45:03;;;;;;;54.58;33.42;;;7.50;99.90;;;;;;5018145;28;20030;-93
2022/02/03 20:47:31;;;;;;;59.33;34.30;;;7.50;99.90;;;;;;5021427;28;20477;-92
2022/02/03 20:49:57;;;;;;;59.05;35.60;;;7.50;99.90;;;;;;5023533;28;20071;-93
2022/02/03 20:52:23;;;;;;;60.25;35.10;;;7.50;99.90;;;;;;5026349;28;20026;-93
2022/02/03 20:54:48;;;;;;;58.80;35.13;;;7.60;99.90;;;;;;5029802;28;20403;-91
2022/02/03 20:57:14;;;;;;;64.88;38.33;;;7.60;99.90;;;;;;5026125;28;20389;-93
2022/02/03 21:00:09;;;;;;;57.78;35.22;;;7.50;99.90;;;;;;5016358;28;20103;-92
2022/02/03 21:05:08;;;;;;;55.08;35.33;;;7.60;99.90;;;;;;5025085;28;20489;-93
2022/02/03 21:07:34;;;;;;;61.00;36.38;;;7.60;99.90;;;;;;5010776;28;20048;-92
2022/02/03 21:10:04;;;;;;;58.97;35.45;;;7.60;99.90;;;;;;5008692;28;20099;-92
2022/02/03 21:12:30;;;;;;;64.68;37.95;;;7.60;99.90;;;;;;5008041;28;20114;-94
2022/02/03 21:14:57;;;;;;;59.63;35.55;;;7.60;99.90;;;;;;5013533;28;20021;-93
2022/02/03 21:17:24;;;;;;;60.22;36.10;;;7.60;99.90;;;;;;5015952;28;20108;-93
2022/02/03 21:19:50;;;;;;;57.65;35.05;;;7.60;99.90;;;;;;5016087;28;20021;-92
2022/02/03 21:22:16;;;;;;;58.08;35.60;;;7.60;99.90;;;;;;5015471;28;20164;-93
2022/02/03 21:24:41;;;;;;;59.83;34.45;;;7.60;99.90;;;;;;5013675;28;20124;-93
2022/02/03 21:27:14;;;;;;;59.58;35.92;;;7.60;99.90;;;;;;5013818;28;20108;-93
2022/02/03 21:29:41;;;;;;;61.08;34.97;;;7.60;99.90;;;;;;5012013;28;20116;-93
2022/02/03 21:32:07;;;;;;;58.20;36.80;;;7.60;99.90;;;;;;5011868;28;20432;-94
2022/02/03 21:34:33;;;;;;;59.95;35.90;;;7.60;99.90;;;;;;5013682;28;20030;-94
2022/02/03 21:36:58;;;;;;;55.55;34.90;;;7.60;99.90;;;;;;5012145;28;20025;-94
2022/02/03 21:39:24;;;;;;;56.42;35.38;;;7.60;99.90;;;;;;5007413;28;20084;-95
2022/02/03 21:41:49;;;;;;;56.45;34.78;;;7.60;99.90;;;;;;5012529;28;20033;-94
2022/02/03 21:44:15;;;;;;;58.20;35.00;;;7.60;99.90;;;;;;5015606;28;20055;-94
2022/02/03 21:46:44;;;;;;;54.60;35.25;;;7.60;99.90;;;;;;5005029;28;20068;-93
2022/02/03 21:49:10;;;;;;;54.38;33.53;;;7.60;99.90;;;;;;5007116;28;20079;-93
2022/02/03 21:51:41;;;;;;;53.78;34.33;;;7.60;99.90;;;;;;5008160;28;20029;-93
2022/02/03 21:54:09;;;;;;;55.15;34.45;;;7.60;99.90;;;;;;5022013;28;20064;-94
2022/02/03 21:56:35;;;;;;;58.90;35.97;;;7.60;99.90;;;;;;5010307;28;20033;-92
2022/02/03 21:59:06;;;;;;;56.65;34.85;;;7.60;99.90;;;;;;5028407;28;20037;-93
2022/02/03 22:01:34;;;;;;;56.88;35.75;;;7.60;99.90;;;;;;5012288;28;20045;-94
2022/02/03 22:03:59;;;;;;;59.10;35.38;;;7.60;99.90;;;;;;5026733;28;21400;-92
2022/02/03 22:06:25;;;;;;;56.35;35.65;;;7.60;99.90;;;;;;5027540;28;20083;-91
2022/02/03 22:08:50;;;;;;;56.17;34.50;;;7.60;99.90;;;;;;5023905;28;20029;-92
2022/02/03 22:11:15;;;;;;;55.40;33.55;;;7.60;99.90;;;;;;5004056;28;20029;-93
2022/02/03 22:13:41;;;;;;;57.60;34.95;;;7.60;99.90;;;;;;5010933;28;20112;-92
2022/02/03 22:16:10;;;;;;;55.22;34.13;;;7.60;99.90;;;;;;5009817;28;20072;-93
2022/02/03 22:18:36;;;;;;;55.85;34.30;;;7.60;99.90;;;;;;5029903;28;20052;-92
2022/02/03 22:21:09;;;;;;;57.90;33.67;;;7.60;99.90;;;;;;5030529;28;20049;-92
2022/02/03 22:40:45;;;;;;;57.95;34.88;;;7.60;99.90;;;;;;5028876;28;20045;-92
2022/02/03 22:43:01;;;;;;;59.70;35.33;;;7.60;99.90;;;;;;5028504;28;20343;-92
2022/02/03 22:45:36;;;;;;;56.28;34.05;;;7.60;99.90;;;;;;5028474;28;20026;-93
2022/02/03 22:48:23;;;;;;;57.60;34.05;;;7.60;99.90;;;;;;5012663;28;20477;-92
2022/02/03 22:50:47;;;;;;;57.28;33.85;;;7.60;99.90;;;;;;5028176;28;20110;-92
2022/02/03 22:53:13;;;;;;;59.88;37.35;;;7.60;99.90;;;;;;5028525;28;20026;-92
2022/02/03 22:55:39;;;;;;;59.47;36.97;;;7.60;99.90;;;;;;5010259;28;20144;-92
2022/02/03 23:01:06;;;;;;;64.18;37.78;;;7.70;99.90;;;;;;5028868;28;20045;-92
2022/02/03 23:03:33;;;;;;;60.45;35.97;;;7.70;99.90;;;;;;5013224;28;20083;-93
2022/02/03 23:05:59;;;;;;;60.95;35.60;;;7.70;99.90;;;;;;5010773;28;20041;-92
2022/02/03 23:08:52;;;;;;;64.13;37.72;;;7.60;99.90;;;;;;5011279;28;20025;-92
2022/02/03 23:21:46;;;;;;;59.40;35.28;;;7.70;99.90;;;;;;5030307;28;20037;-93
2022/02/03 23:24:11;;;;;;;56.30;33.83;;;7.70;99.90;;;;;;5011242;28;20474;-93
2022/02/03 23:26:37;;;;;;;55.92;33.92;;;7.70;99.90;;;;;;5011844;28;20075;-92
2022/02/03 23:29:11;;;;;;;55.13;35.20;;;7.70;99.90;;;;;;5011315;28;20029;-92
2022/02/03 23:31:52;;;;;;;54.50;34.20;;;7.70;99.90;;;;;;5011379;28;20041;-92
2022/02/03 23:34:19;;;;;;;53.95;33.22;;;7.70;99.90;;;;;;5012764;28;20137;-93
2022/02/03 23:36:44;;;;;;;55.95;33.05;;;7.70;99.90;;;;;;5011856;28;20025;-91
2022/02/03 23:39:27;;;;;;;52.33;33.38;;;7.70;99.90;;;;;;5027189;28;20024;-92
2022/02/03 23:42:43;;;;;;;50.05;32.17;;;7.70;99.90;;;;;;5009079;28;20037;-92
2022/02/03 23:45:24;;;;;;;49.65;32.00;;;7.70;99.90;;;;;;5026045;28;20014;-93
